createdAt,value
2023-02-03T00:03:43.514Z,97226.70
2023-02-03T00:14:31.032Z,97240.64
2023-02-03T00:25:24.870Z,97243.83
2023-02-03T00:36:09.062Z,97250.87
2023-02-03T00:47:02.635Z,97275.96
2023-02-03T00:58:11.250Z,97282.25
2023-02-03T01:09:06.342Z,97285.82
2023-02-03T01:20:11.524Z,97297.28
2023-02-03T01:31:30.073Z,97308.37
2023-02-03T01:42:14.690Z,97312.29
2023-02-03T01:52:54.536Z,97308.56
2023-02-03T02:03:44.990Z,97298.13
2023-02-03T02:14:44.363Z,97289.68
2023-02-03T02:25:31.545Z,97285.88
2023-02-03T02:36:54.742Z,97281.81
2023-02-03T02:48:04.458Z,97277.60
2023-02-03T02:58:56.442Z,97287.11
2023-02-03T03:09:17.712Z,97289.38
2023-02-03T03:20:26.220Z,97281.12
2023-02-03T03:31:41.036Z,97251.98
2023-02-03T03:42:38.272Z,97226.84
2023-02-03T03:53:22.167Z,97249.31
2023-02-03T04:04:21.030Z,97272.64
2023-02-03T04:15:11.389Z,97257.65
2023-02-03T04:25:55.965Z,97222.80
2023-02-03T04:36:25.688Z,97211.36
2023-02-03T04:47:12.343Z,97211.77
2023-02-03T04:58:11.933Z,97224.56
2023-02-03T05:09:14.608Z,97218.20
2023-02-03T05:19:38.935Z,97211.89
2023-02-03T05:30:14.795Z,97202.52
2023-02-03T05:40:57.408Z,97189.73
2023-02-03T05:51:31.235Z,97192.05
2023-02-03T06:02:27.154Z,97179.80
2023-02-03T06:13:05.850Z,97171.91
2023-02-03T06:23:53.159Z,97151.77
2023-02-03T06:35:00.425Z,97130.48
2023-02-03T06:45:37.874Z,97106.64
2023-02-03T06:56:13.918Z,97094.54
2023-02-03T07:06:52.994Z,97090.28
2023-02-03T07:17:29.472Z,97088.20
2023-02-03T07:28:14.196Z,97080.63
2023-02-03T07:38:25.421Z,97072.24
2023-02-03T07:49:18.651Z,97056.54
2023-02-03T07:59:32.981Z,97044.36
2023-02-03T08:09:37.101Z,97028.44
2023-02-03T08:19:44.329Z,97017.88
2023-02-03T08:30:08.072Z,97008.39
2023-02-03T08:40:27.961Z,96992.05
2023-02-03T08:50:37.595Z,96974.05
2023-02-03T09:00:53.972Z,96960.29
2023-02-03T09:11:26.692Z,96939.39
2023-02-03T09:21:44.072Z,96923.69
2023-02-03T09:32:07.508Z,96914.55
2023-02-03T09:42:51.453Z,96897.45
2023-02-03T09:53:31.221Z,96877.58
2023-02-03T10:04:28.503Z,96859.36
2023-02-03T10:15:54.153Z,96840.20
2023-02-03T10:26:32.758Z,96813.43
2023-02-03T10:37:03.551Z,96768.15
2023-02-03T10:48:03.145Z,96724.04
2023-02-03T10:58:18.351Z,96693.29
2023-02-03T11:08:35.080Z,96658.02
2023-02-03T11:19:28.557Z,96630.56
2023-02-03T11:30:18.509Z,96600.17
2023-02-03T11:40:59.613Z,96569.45
2023-02-03T11:51:40.795Z,96535.48
2023-02-03T12:03:15.821Z,96492.11
2023-02-03T12:14:29.603Z,96452.32
2023-02-03T12:26:06.250Z,96414.42
2023-02-03T12:37:02.070Z,96377.55
2023-02-03T12:47:52.115Z,96345.02
2023-02-03T12:58:42.764Z,96324.45
2023-02-03T13:09:44.700Z,96293.84
2023-02-03T13:20:36.397Z,96262.52
2023-02-03T13:31:40.729Z,96235.14
2023-02-03T13:42:59.716Z,96205.63
2023-02-03T13:53:53.265Z,96176.38
2023-02-03T14:05:03.357Z,96145.09
2023-02-03T14:15:28.722Z,96119.08
2023-02-03T14:25:59.622Z,96099.03
2023-02-03T14:36:31.431Z,96063.39
2023-02-03T14:46:59.199Z,96042.80
2023-02-03T14:57:30.874Z,96017.23
2023-02-03T15:07:47.937Z,96000.38
2023-02-03T15:18:19.868Z,95985.74
2023-02-03T15:28:29.534Z,95976.64
2023-02-03T15:38:42.428Z,95962.55
2023-02-03T15:49:04.411Z,95955.79
2023-02-03T15:59:30.432Z,95959.56
2023-02-03T16:09:45.563Z,95971.77
2023-02-03T16:20:34.308Z,95976.03
2023-02-03T16:31:23.140Z,95975.44
2023-02-03T16:41:45.844Z,95951.27
2023-02-03T16:51:50.126Z,95943.33
2023-02-03T17:01:54.288Z,95946.44
2023-02-03T17:11:58.567Z,95962.15
2023-02-03T17:22:02.715Z,95984.12
2023-02-03T17:32:07.363Z,95986.17
2023-02-03T18:02:55.489Z,96002.83
2023-02-03T18:13:01.341Z,96010.34
2023-02-03T18:23:05.609Z,96011.25
2023-02-03T18:33:12.572Z,96020.31
2023-02-03T18:43:19.246Z,96025.33
2023-02-03T18:53:26.076Z,96037.26
2023-02-03T19:03:32.336Z,96041.64
2023-02-03T19:13:37.707Z,96041.13
2023-02-03T19:23:56.309Z,96050.84
2023-02-03T19:34:02.460Z,96042.53
2023-02-03T19:44:15.713Z,96050.34
2023-02-03T19:54:26.540Z,96048.81
2023-02-03T20:04:37.339Z,96052.63
2023-02-03T20:14:48.981Z,96057.31
2023-02-03T20:24:56.785Z,96065.11
2023-02-03T20:35:07.416Z,96060.73
2023-02-03T20:45:25.712Z,96054.85
2023-02-03T20:55:32.793Z,96047.77
2023-02-03T21:05:45.503Z,96049.52
2023-02-03T21:16:06.306Z,96048.48
2023-02-03T21:26:32.361Z,96042.56
2023-02-03T21:36:39.391Z,96058.98
2023-02-03T21:46:48.148Z,96067.64
2023-02-03T21:56:55.517Z,96074.09
2023-02-03T22:07:02.995Z,96080.52
2023-02-03T22:17:08.290Z,96071.13
2023-02-03T22:27:13.086Z,96072.80
2023-02-03T22:37:17.075Z,96061.50
2023-02-03T22:47:22.323Z,96050.46
2023-02-03T22:57:26.290Z,96051.70
2023-02-03T23:07:30.276Z,96048.10
2023-02-03T23:17:37.114Z,96037.48
2023-02-03T23:27:41.129Z,96045.98
2023-02-03T23:37:45.823Z,96053.61
2023-02-03T23:47:49.985Z,96047.36
2023-02-03T23:58:16.123Z,96035.43
